sensor_id;sensor_type;location;lat;lon;timestamp;temperature;humidity
71208;DHT22;58938;49.868;8.646;2022-08-30T00:00:08;24.00;30.40
71208;DHT22;58938;49.868;8.646;2022-08-30T00:02:53;23.90;30.40
71208;DHT22;58938;49.868;8.646;2022-08-30T00:05:19;23.90;30.40
71208;DHT22;58938;49.868;8.646;2022-08-30T00:07:45;23.90;30.50
71208;DHT22;58938;49.868;8.646;2022-08-30T00:10:10;23.90;30.50
71208;DHT22;58938;49.868;8.646;2022-08-30T00:12:37;23.90;30.60
71208;DHT22;58938;49.868;8.646;2022-08-30T00:15:04;23.80;30.70
71208;DHT22;58938;49.868;8.646;2022-08-30T00:17:31;23.80;30.70
71208;DHT22;58938;49.868;8.646;2022-08-30T00:19:57;23.80;30.70
71208;DHT22;58938;49.868;8.646;2022-08-30T00:22:22;23.80;30.80
71208;DHT22;58938;49.868;8.646;2022-08-30T00:24:48;23.70;30.80
71208;DHT22;58938;49.868;8.646;2022-08-30T00:27:14;23.70;30.80
71208;DHT22;58938;49.868;8.646;2022-08-30T00:29:40;23.70;30.90
71208;DHT22;58938;49.868;8.646;2022-08-30T00:32:05;23.60;31.10
71208;DHT22;58938;49.868;8.646;2022-08-30T00:34:31;23.60;31.20
71208;DHT22;58938;49.868;8.646;2022-08-30T00:36:57;23.60;31.50
71208;DHT22;58938;49.868;8.646;2022-08-30T00:39:23;23.50;31.70
71208;DHT22;58938;49.868;8.646;2022-08-30T00:41:49;23.40;31.80
71208;DHT22;58938;49.868;8.646;2022-08-30T00:44:15;23.40;31.90
71208;DHT22;58938;49.868;8.646;2022-08-30T00:46:40;23.40;32.00
71208;DHT22;58938;49.868;8.646;2022-08-30T00:49:07;23.30;32.10
71208;DHT22;58938;49.868;8.646;2022-08-30T00:51:34;23.30;32.20
71208;DHT22;58938;49.868;8.646;2022-08-30T00:54:01;23.30;32.30
71208;DHT22;58938;49.868;8.646;2022-08-30T00:56:28;23.30;32.30
71208;DHT22;58938;49.868;8.646;2022-08-30T00:58:56;23.30;32.40
71208;DHT22;58938;49.868;8.646;2022-08-30T01:01:22;23.20;32.50
71208;DHT22;58938;49.868;8.646;2022-08-30T01:03:49;23.20;32.60
71208;DHT22;58938;49.868;8.646;2022-08-30T01:06:15;23.20;32.70
71208;DHT22;58938;49.868;8.646;2022-08-30T01:08:42;23.10;32.80
71208;DHT22;58938;49.868;8.646;2022-08-30T01:11:08;23.10;32.90
71208;DHT22;58938;49.868;8.646;2022-08-30T01:13:36;23.10;33.00
71208;DHT22;58938;49.868;8.646;2022-08-30T01:16:03;23.00;33.10
71208;DHT22;58938;49.868;8.646;2022-08-30T01:18:29;23.00;33.10
71208;DHT22;58938;49.868;8.646;2022-08-30T01:23:45;23.00;33.20
71208;DHT22;58938;49.868;8.646;2022-08-30T01:26:12;23.00;33.20
71208;DHT22;58938;49.868;8.646;2022-08-30T01:28:39;23.00;33.30
71208;DHT22;58938;49.868;8.646;2022-08-30T01:31:06;23.00;33.30
71208;DHT22;58938;49.868;8.646;2022-08-30T01:33:34;22.90;33.40
71208;DHT22;58938;49.868;8.646;2022-08-30T01:36:04;22.90;33.40
71208;DHT22;58938;49.868;8.646;2022-08-30T01:41:13;22.80;33.60
71208;DHT22;58938;49.868;8.646;2022-08-30T01:43:40;22.80;33.60
71208;DHT22;58938;49.868;8.646;2022-08-30T01:46:06;22.80;33.70
71208;DHT22;58938;49.868;8.646;2022-08-30T01:48:35;22.80;33.70
71208;DHT22;58938;49.868;8.646;2022-08-30T01:51:01;22.80;33.70
71208;DHT22;58938;49.868;8.646;2022-08-30T01:53:27;22.70;33.80
71208;DHT22;58938;49.868;8.646;2022-08-30T01:55:52;22.70;33.90
71208;DHT22;58938;49.868;8.646;2022-08-30T01:58:18;22.70;33.90
71208;DHT22;58938;49.868;8.646;2022-08-30T02:00:43;22.70;33.90
71208;DHT22;58938;49.868;8.646;2022-08-30T02:03:09;22.60;34.00
71208;DHT22;58938;49.868;8.646;2022-08-30T02:05:35;22.60;34.00
71208;DHT22;58938;49.868;8.646;2022-08-30T02:08:01;22.60;34.10
71208;DHT22;58938;49.868;8.646;2022-08-30T02:10:27;22.60;34.10
71208;DHT22;58938;49.868;8.646;2022-08-30T02:12:53;22.60;34.20
71208;DHT22;58938;49.868;8.646;2022-08-30T02:15:19;22.50;34.30
71208;DHT22;58938;49.868;8.646;2022-08-30T02:17:45;22.50;34.40
71208;DHT22;58938;49.868;8.646;2022-08-30T02:20:11;22.50;34.40
71208;DHT22;58938;49.868;8.646;2022-08-30T02:22:37;22.50;34.50
71208;DHT22;58938;49.868;8.646;2022-08-30T02:25:04;22.50;34.60
71208;DHT22;58938;49.868;8.646;2022-08-30T02:27:30;22.50;34.60
71208;DHT22;58938;49.868;8.646;2022-08-30T02:29:56;22.50;34.70
71208;DHT22;58938;49.868;8.646;2022-08-30T02:32:21;22.50;34.70
71208;DHT22;58938;49.868;8.646;2022-08-30T02:34:47;22.40;34.70
71208;DHT22;58938;49.868;8.646;2022-08-30T02:37:12;22.40;34.90
71208;DHT22;58938;49.868;8.646;2022-08-30T02:39:39;22.40;34.90
71208;DHT22;58938;49.868;8.646;2022-08-30T02:42:05;22.30;35.10
71208;DHT22;58938;49.868;8.646;2022-08-30T02:44:31;22.30;35.20
71208;DHT22;58938;49.868;8.646;2022-08-30T02:46:56;22.30;35.20
71208;DHT22;58938;49.868;8.646;2022-08-30T02:49:22;22.20;35.40
71208;DHT22;58938;49.868;8.646;2022-08-30T02:51:48;22.20;35.50
71208;DHT22;58938;49.868;8.646;2022-08-30T02:54:14;22.20;35.50
71208;DHT22;58938;49.868;8.646;2022-08-30T02:56:48;22.20;35.60
71208;DHT22;58938;49.868;8.646;2022-08-30T02:59:15;22.10;35.70
71208;DHT22;58938;49.868;8.646;2022-08-30T03:01:41;22.10;35.70
71208;DHT22;58938;49.868;8.646;2022-08-30T03:04:07;22.10;35.90
71208;DHT22;58938;49.868;8.646;2022-08-30T03:06:32;22.00;35.90
71208;DHT22;58938;49.868;8.646;2022-08-30T03:08:58;22.00;36.00
71208;DHT22;58938;49.868;8.646;2022-08-30T03:11:24;22.00;36.10
71208;DHT22;58938;49.868;8.646;2022-08-30T03:13:49;22.00;36.10
71208;DHT22;58938;49.868;8.646;2022-08-30T03:16:16;22.00;36.20
71208;DHT22;58938;49.868;8.646;2022-08-30T03:18:42;21.90;36.30
71208;DHT22;58938;49.868;8.646;2022-08-30T03:21:15;21.90;36.40
71208;DHT22;58938;49.868;8.646;2022-08-30T03:23:41;21.90;36.40
71208;DHT22;58938;49.868;8.646;2022-08-30T03:26:08;21.90;36.60
71208;DHT22;58938;49.868;8.646;2022-08-30T03:28:36;21.90;36.60
71208;DHT22;58938;49.868;8.646;2022-08-30T03:31:02;21.90;36.60
71208;DHT22;58938;49.868;8.646;2022-08-30T03:33:28;21.90;36.70
71208;DHT22;58938;49.868;8.646;2022-08-30T03:35:53;21.80;36.70
71208;DHT22;58938;49.868;8.646;2022-08-30T03:38:19;21.80;36.80
71208;DHT22;58938;49.868;8.646;2022-08-30T03:40:44;21.80;36.90
71208;DHT22;58938;49.868;8.646;2022-08-30T03:43:10;21.80;36.90
71208;DHT22;58938;49.868;8.646;2022-08-30T03:45:35;21.80;37.00
71208;DHT22;58938;49.868;8.646;2022-08-30T03:48:01;21.80;37.10
71208;DHT22;58938;49.868;8.646;2022-08-30T03:50:28;21.80;37.20
71208;DHT22;58938;49.868;8.646;2022-08-30T03:52:54;21.80;37.20
71208;DHT22;58938;49.868;8.646;2022-08-30T03:55:19;21.70;37.30
71208;DHT22;58938;49.868;8.646;2022-08-30T03:57:45;21.70;37.40
71208;DHT22;58938;49.868;8.646;2022-08-30T04:00:12;21.60;37.50
71208;DHT22;58938;49.868;8.646;2022-08-30T04:02:39;21.60;37.60
71208;DHT22;58938;49.868;8.646;2022-08-30T04:05:05;21.50;37.70
71208;DHT22;58938;49.868;8.646;2022-08-30T04:07:30;21.50;37.80
71208;DHT22;58938;49.868;8.646;2022-08-30T04:09:56;21.50;37.90
71208;DHT22;58938;49.868;8.646;2022-08-30T04:12:22;21.40;38.00
71208;DHT22;58938;49.868;8.646;2022-08-30T04:14:47;21.30;38.10
71208;DHT22;58938;49.868;8.646;2022-08-30T04:17:13;21.30;38.20
71208;DHT22;58938;49.868;8.646;2022-08-30T04:19:38;21.20;38.30
71208;DHT22;58938;49.868;8.646;2022-08-30T04:22:04;21.20;38.30
71208;DHT22;58938;49.868;8.646;2022-08-30T04:24:30;21.10;38.50
71208;DHT22;58938;49.868;8.646;2022-08-30T04:26:57;21.10;38.60
71208;DHT22;58938;49.868;8.646;2022-08-30T04:29:22;21.00;38.60
71208;DHT22;58938;49.868;8.646;2022-08-30T04:31:48;21.00;38.70
71208;DHT22;58938;49.868;8.646;2022-08-30T04:34:13;21.00;38.70
71208;DHT22;58938;49.868;8.646;2022-08-30T04:36:39;21.00;38.80
71208;DHT22;58938;49.868;8.646;2022-08-30T04:39:05;21.00;38.80
71208;DHT22;58938;49.868;8.646;2022-08-30T04:41:31;20.90;38.90
71208;DHT22;58938;49.868;8.646;2022-08-30T04:43:56;20.90;39.20
71208;DHT22;58938;49.868;8.646;2022-08-30T04:46:22;20.80;39.60
71208;DHT22;58938;49.868;8.646;2022-08-30T04:48:48;20.80;39.90
71208;DHT22;58938;49.868;8.646;2022-08-30T04:51:16;20.80;40.10
71208;DHT22;58938;49.868;8.646;2022-08-30T04:53:42;20.80;40.40
71208;DHT22;58938;49.868;8.646;2022-08-30T04:56:14;20.80;40.40
71208;DHT22;58938;49.868;8.646;2022-08-30T04:58:45;20.70;40.50
71208;DHT22;58938;49.868;8.646;2022-08-30T05:01:16;20.70;40.60
71208;DHT22;58938;49.868;8.646;2022-08-30T05:03:42;20.80;40.60
71208;DHT22;58938;49.868;8.646;2022-08-30T05:06:10;20.70;40.80
71208;DHT22;58938;49.868;8.646;2022-08-30T05:08:36;20.70;40.80
71208;DHT22;58938;49.868;8.646;2022-08-30T05:11:03;20.70;40.90
71208;DHT22;58938;49.868;8.646;2022-08-30T05:13:30;20.70;40.90
71208;DHT22;58938;49.868;8.646;2022-08-30T05:15:55;20.60;41.10
71208;DHT22;58938;49.868;8.646;2022-08-30T05:18:21;20.60;41.20
71208;DHT22;58938;49.868;8.646;2022-08-30T05:20:46;20.60;41.20
71208;DHT22;58938;49.868;8.646;2022-08-30T05:23:12;20.50;41.30
71208;DHT22;58938;49.868;8.646;2022-08-30T05:25:40;20.50;41.40
71208;DHT22;58938;49.868;8.646;2022-08-30T05:28:06;20.50;41.50
71208;DHT22;58938;49.868;8.646;2022-08-30T05:30:34;20.50;41.60
71208;DHT22;58938;49.868;8.646;2022-08-30T05:33:00;20.50;41.70
71208;DHT22;58938;49.868;8.646;2022-08-30T05:35:26;20.50;41.80
71208;DHT22;58938;49.868;8.646;2022-08-30T05:37:52;20.50;41.90
71208;DHT22;58938;49.868;8.646;2022-08-30T05:40:18;20.50;41.90
71208;DHT22;58938;49.868;8.646;2022-08-30T05:42:44;20.50;42.00
71208;DHT22;58938;49.868;8.646;2022-08-30T05:45:11;20.50;42.10
71208;DHT22;58938;49.868;8.646;2022-08-30T05:47:37;20.40;42.20
71208;DHT22;58938;49.868;8.646;2022-08-30T05:50:04;20.40;42.20
71208;DHT22;58938;49.868;8.646;2022-08-30T05:52:37;20.50;42.20
71208;DHT22;58938;49.868;8.646;2022-08-30T05:55:03;20.50;42.30
71208;DHT22;58938;49.868;8.646;2022-08-30T05:57:37;20.50;42.30
71208;DHT22;58938;49.868;8.646;2022-08-30T06:00:09;20.50;42.30
71208;DHT22;58938;49.868;8.646;2022-08-30T06:02:35;20.50;42.30
71208;DHT22;58938;49.868;8.646;2022-08-30T06:05:02;20.50;42.40
71208;DHT22;58938;49.868;8.646;2022-08-30T06:07:28;20.50;42.60
71208;DHT22;58938;49.868;8.646;2022-08-30T06:09:54;20.40;42.60
71208;DHT22;58938;49.868;8.646;2022-08-30T06:12:19;20.40;42.70
71208;DHT22;58938;49.868;8.646;2022-08-30T06:14:45;20.40;42.70
71208;DHT22;58938;49.868;8.646;2022-08-30T06:17:11;20.50;42.80
71208;DHT22;58938;49.868;8.646;2022-08-30T06:19:37;20.50;42.80
71208;DHT22;58938;49.868;8.646;2022-08-30T06:22:02;20.50;42.80
71208;DHT22;58938;49.868;8.646;2022-08-30T06:24:28;20.60;42.90
71208;DHT22;58938;49.868;8.646;2022-08-30T06:26:54;20.60;42.90
71208;DHT22;58938;49.868;8.646;2022-08-30T06:29:20;20.60;42.90
71208;DHT22;58938;49.868;8.646;2022-08-30T06:31:46;20.60;42.90
71208;DHT22;58938;49.868;8.646;2022-08-30T06:34:11;20.70;42.90
71208;DHT22;58938;49.868;8.646;2022-08-30T06:36:37;20.70;42.90
71208;DHT22;58938;49.868;8.646;2022-08-30T06:39:04;20.70;43.00
71208;DHT22;58938;49.868;8.646;2022-08-30T06:41:31;20.80;43.00
71208;DHT22;58938;49.868;8.646;2022-08-30T06:43:59;20.80;42.90
71208;DHT22;58938;49.868;8.646;2022-08-30T06:46:28;20.80;42.20
71208;DHT22;58938;49.868;8.646;2022-08-30T06:48:55;20.90;41.80
71208;DHT22;58938;49.868;8.646;2022-08-30T06:51:26;20.90;41.60
71208;DHT22;58938;49.868;8.646;2022-08-30T06:53:52;21.00;41.60
71208;DHT22;58938;49.868;8.646;2022-08-30T06:56:18;21.00;41.70
71208;DHT22;58938;49.868;8.646;2022-08-30T06:58:44;21.00;41.60
71208;DHT22;58938;49.868;8.646;2022-08-30T07:01:13;21.00;41.70
71208;DHT22;58938;49.868;8.646;2022-08-30T07:03:39;21.10;41.60
71208;DHT22;58938;49.868;8.646;2022-08-30T07:06:05;21.10;41.70
71208;DHT22;58938;49.868;8.646;2022-08-30T07:08:31;21.20;41.70
71208;DHT22;58938;49.868;8.646;2022-08-30T07:10:56;21.20;41.70
71208;DHT22;58938;49.868;8.646;2022-08-30T07:13:22;21.30;41.80
71208;DHT22;58938;49.868;8.646;2022-08-30T07:15:49;21.30;41.80
71208;DHT22;58938;49.868;8.646;2022-08-30T07:18:15;21.30;41.80
71208;DHT22;58938;49.868;8.646;2022-08-30T07:21:09;21.40;41.80
71208;DHT22;58938;49.868;8.646;2022-08-30T07:23:36;21.50;41.80
71208;DHT22;58938;49.868;8.646;2022-08-30T07:26:07;21.50;41.80
71208;DHT22;58938;49.868;8.646;2022-08-30T07:28:36;21.50;41.80
71208;DHT22;58938;49.868;8.646;2022-08-30T07:31:01;21.60;41.90
71208;DHT22;58938;49.868;8.646;2022-08-30T07:33:27;21.60;41.80
71208;DHT22;58938;49.868;8.646;2022-08-30T07:35:52;21.60;41.90
71208;DHT22;58938;49.868;8.646;2022-08-30T07:38:18;21.70;41.90
71208;DHT22;58938;49.868;8.646;2022-08-30T07:40:44;21.70;41.90
71208;DHT22;58938;49.868;8.646;2022-08-30T07:43:09;21.70;41.90
71208;DHT22;58938;49.868;8.646;2022-08-30T07:45:37;21.80;42.00
71208;DHT22;58938;49.868;8.646;2022-08-30T07:48:03;21.80;42.00
71208;DHT22;58938;49.868;8.646;2022-08-30T07:50:30;21.90;42.00
71208;DHT22;58938;49.868;8.646;2022-08-30T07:52:55;21.90;41.90
71208;DHT22;58938;49.868;8.646;2022-08-30T07:55:21;21.90;42.00
71208;DHT22;58938;49.868;8.646;2022-08-30T07:57:46;22.00;42.00
71208;DHT22;58938;49.868;8.646;2022-08-30T08:00:12;22.00;42.00
71208;DHT22;58938;49.868;8.646;2022-08-30T08:02:39;22.10;42.00
71208;DHT22;58938;49.868;8.646;2022-08-30T08:05:06;22.10;42.00
71208;DHT22;58938;49.868;8.646;2022-08-30T08:07:33;22.20;41.90
71208;DHT22;58938;49.868;8.646;2022-08-30T08:09:59;22.20;41.90
71208;DHT22;58938;49.868;8.646;2022-08-30T08:12:24;22.30;41.90
71208;DHT22;58938;49.868;8.646;2022-08-30T08:14:50;22.30;41.90
71208;DHT22;58938;49.868;8.646;2022-08-30T08:17:16;22.40;41.90
71208;DHT22;58938;49.868;8.646;2022-08-30T08:19:41;22.40;41.80
71208;DHT22;58938;49.868;8.646;2022-08-30T08:22:07;22.50;41.70
71208;DHT22;58938;49.868;8.646;2022-08-30T08:24:33;22.50;41.70
71208;DHT22;58938;49.868;8.646;2022-08-30T08:26:59;22.50;41.70
71208;DHT22;58938;49.868;8.646;2022-08-30T08:29:24;22.60;41.60
71208;DHT22;58938;49.868;8.646;2022-08-30T08:31:52;22.60;41.60
71208;DHT22;58938;49.868;8.646;2022-08-30T08:34:18;22.70;41.60
71208;DHT22;58938;49.868;8.646;2022-08-30T08:36:47;22.80;41.60
71208;DHT22;58938;49.868;8.646;2022-08-30T08:39:13;22.80;41.50
71208;DHT22;58938;49.868;8.646;2022-08-30T08:42:00;22.90;41.50
71208;DHT22;58938;49.868;8.646;2022-08-30T08:47:10;23.00;41.40
71208;DHT22;58938;49.868;8.646;2022-08-30T08:49:38;23.00;41.40
71208;DHT22;58938;49.868;8.646;2022-08-30T08:52:06;23.00;41.30
71208;DHT22;58938;49.868;8.646;2022-08-30T08:55:08;23.10;41.20
71208;DHT22;58938;49.868;8.646;2022-08-30T08:57:35;23.10;41.20
71208;DHT22;58938;49.868;8.646;2022-08-30T09:00:06;23.10;41.10
71208;DHT22;58938;49.868;8.646;2022-08-30T09:02:48;23.20;41.00
71208;DHT22;58938;49.868;8.646;2022-08-30T09:05:19;23.20;40.90
71208;DHT22;58938;49.868;8.646;2022-08-30T09:07:59;23.30;40.70
71208;DHT22;58938;49.868;8.646;2022-08-30T09:10:26;23.40;40.60
71208;DHT22;58938;49.868;8.646;2022-08-30T09:12:52;23.40;40.50
71208;DHT22;58938;49.868;8.646;2022-08-30T09:15:28;23.50;40.50
71208;DHT22;58938;49.868;8.646;2022-08-30T09:18:02;23.50;40.40
71208;DHT22;58938;49.868;8.646;2022-08-30T09:20:40;23.50;39.90
71208;DHT22;58938;49.868;8.646;2022-08-30T09:23:27;23.60;39.50
71208;DHT22;58938;49.868;8.646;2022-08-30T09:25:58;23.60;39.30
71208;DHT22;58938;49.868;8.646;2022-08-30T09:28:46;23.70;39.20
71208;DHT22;58938;49.868;8.646;2022-08-30T09:31:28;23.70;39.20
71208;DHT22;58938;49.868;8.646;2022-08-30T09:34:04;23.70;39.20
71208;DHT22;58938;49.868;8.646;2022-08-30T09:36:40;23.80;39.00
71208;DHT22;58938;49.868;8.646;2022-08-30T09:39:30;23.90;38.90
71208;DHT22;58938;49.868;8.646;2022-08-30T09:42:20;23.90;38.80
71208;DHT22;58938;49.868;8.646;2022-08-30T09:44:46;24.00;38.80
71208;DHT22;58938;49.868;8.646;2022-08-30T09:47:29;24.00;38.60
71208;DHT22;58938;49.868;8.646;2022-08-30T09:50:08;24.10;38.50
71208;DHT22;58938;49.868;8.646;2022-08-30T09:52:41;24.10;38.40
71208;DHT22;58938;49.868;8.646;2022-08-30T10:00:29;24.30;37.90
71208;DHT22;58938;49.868;8.646;2022-08-30T10:08:45;24.40;37.60
71208;DHT22;58938;49.868;8.646;2022-08-30T10:14:06;24.50;37.30
71208;DHT22;58938;49.868;8.646;2022-08-30T10:22:40;24.70;36.80
71208;DHT22;58938;49.868;8.646;2022-08-30T10:25:10;24.70;36.60
71208;DHT22;58938;49.868;8.646;2022-08-30T10:27:42;24.80;36.40
71208;DHT22;58938;49.868;8.646;2022-08-30T10:30:12;24.80;36.30
71208;DHT22;58938;49.868;8.646;2022-08-30T10:35:24;24.90;35.80
71208;DHT22;58938;49.868;8.646;2022-08-30T10:38:49;25.00;35.60
71208;DHT22;58938;49.868;8.646;2022-08-30T10:44:02;25.10;35.30
71208;DHT22;58938;49.868;8.646;2022-08-30T10:49:20;25.30;35.00
71208;DHT22;58938;49.868;8.646;2022-08-30T10:52:06;25.30;34.80
71208;DHT22;58938;49.868;8.646;2022-08-30T10:57:11;25.40;34.40
71208;DHT22;58938;49.868;8.646;2022-08-30T10:59:47;25.50;34.30
71208;DHT22;58938;49.868;8.646;2022-08-30T11:05:17;25.60;34.10
71208;DHT22;58938;49.868;8.646;2022-08-30T11:13:05;26.10;33.00
71208;DHT22;58938;49.868;8.646;2022-08-30T11:16:04;26.30;32.40
71208;DHT22;58938;49.868;8.646;2022-08-30T11:18:51;26.40;32.00
71208;DHT22;58938;49.868;8.646;2022-08-30T11:24:16;26.70;31.50
71208;DHT22;58938;49.868;8.646;2022-08-30T11:29:39;26.80;31.20
71208;DHT22;58938;49.868;8.646;2022-08-30T11:37:37;26.90;30.60
71208;DHT22;58938;49.868;8.646;2022-08-30T11:42:47;27.00;30.40
71208;DHT22;58938;49.868;8.646;2022-08-30T11:47:58;27.10;30.00
71208;DHT22;58938;49.868;8.646;2022-08-30T11:58:22;27.30;29.90
71208;DHT22;58938;49.868;8.646;2022-08-30T12:03:41;27.40;30.00
71208;DHT22;58938;49.868;8.646;2022-08-30T12:06:09;27.40;29.90
71208;DHT22;58938;49.868;8.646;2022-08-30T12:08:47;27.40;29.80
71208;DHT22;58938;49.868;8.646;2022-08-30T12:18:53;27.50;29.80
71208;DHT22;58938;49.868;8.646;2022-08-30T12:23:57;27.60;29.70
71208;DHT22;58938;49.868;8.646;2022-08-30T12:28:51;27.70;29.10
71208;DHT22;58938;49.868;8.646;2022-08-30T12:31:23;27.70;28.70
71208;DHT22;58938;49.868;8.646;2022-08-30T12:33:58;27.80;28.30
71208;DHT22;58938;49.868;8.646;2022-08-30T12:36:36;27.90;28.30
71208;DHT22;58938;49.868;8.646;2022-08-30T12:39:06;27.90;28.30
71208;DHT22;58938;49.868;8.646;2022-08-30T12:41:32;27.90;28.10
71208;DHT22;58938;49.868;8.646;2022-08-30T12:43:57;28.00;28.00
71208;DHT22;58938;49.868;8.646;2022-08-30T12:46:24;28.00;28.00
71208;DHT22;58938;49.868;8.646;2022-08-30T12:48:50;28.10;28.00
71208;DHT22;58938;49.868;8.646;2022-08-30T12:51:34;28.10;28.00
71208;DHT22;58938;49.868;8.646;2022-08-30T12:54:04;28.20;27.80
71208;DHT22;58938;49.868;8.646;2022-08-30T12:57:03;28.30;27.40
71208;DHT22;58938;49.868;8.646;2022-08-30T13:02:25;28.50;27.50
71208;DHT22;58938;49.868;8.646;2022-08-30T13:04:53;28.50;27.50
71208;DHT22;58938;49.868;8.646;2022-08-30T13:07:37;28.60;27.40
71208;DHT22;58938;49.868;8.646;2022-08-30T13:10:21;28.70;27.20
71208;DHT22;58938;49.868;8.646;2022-08-30T13:13:02;28.70;27.00
71208;DHT22;58938;49.868;8.646;2022-08-30T13:15:31;28.70;26.90
71208;DHT22;58938;49.868;8.646;2022-08-30T13:18:23;28.80;26.80
71208;DHT22;58938;49.868;8.646;2022-08-30T13:21:18;28.80;26.80
71208;DHT22;58938;49.868;8.646;2022-08-30T13:23:45;28.80;26.80
71208;DHT22;58938;49.868;8.646;2022-08-30T13:26:11;28.90;26.70
71208;DHT22;58938;49.868;8.646;2022-08-30T13:28:52;28.90;26.50
71208;DHT22;58938;49.868;8.646;2022-08-30T13:31:18;28.90;26.50
71208;DHT22;58938;49.868;8.646;2022-08-30T13:33:43;29.00;26.50
71208;DHT22;58938;49.868;8.646;2022-08-30T13:36:12;29.00;26.30
71208;DHT22;58938;49.868;8.646;2022-08-30T13:38:38;29.00;26.20
71208;DHT22;58938;49.868;8.646;2022-08-30T13:41:04;29.00;25.90
71208;DHT22;58938;49.868;8.646;2022-08-30T13:43:30;29.00;25.90
71208;DHT22;58938;49.868;8.646;2022-08-30T13:45:55;29.00;25.90
71208;DHT22;58938;49.868;8.646;2022-08-30T13:48:23;29.00;25.80
71208;DHT22;58938;49.868;8.646;2022-08-30T13:50:49;29.00;25.60
71208;DHT22;58938;49.868;8.646;2022-08-30T13:53:15;29.00;25.60
71208;DHT22;58938;49.868;8.646;2022-08-30T13:55:42;29.00;25.30
71208;DHT22;58938;49.868;8.646;2022-08-30T13:58:08;29.00;25.40
71208;DHT22;58938;49.868;8.646;2022-08-30T14:00:34;29.00;25.30
71208;DHT22;58938;49.868;8.646;2022-08-30T14:03:00;29.00;25.10
71208;DHT22;58938;49.868;8.646;2022-08-30T14:05:31;29.00;25.20
71208;DHT22;58938;49.868;8.646;2022-08-30T14:07:58;29.00;25.20
71208;DHT22;58938;49.868;8.646;2022-08-30T14:10:26;29.00;25.30
71208;DHT22;58938;49.868;8.646;2022-08-30T14:12:52;29.00;25.40
71208;DHT22;58938;49.868;8.646;2022-08-30T14:15:18;29.00;25.40
71208;DHT22;58938;49.868;8.646;2022-08-30T14:17:44;29.00;25.30
71208;DHT22;58938;49.868;8.646;2022-08-30T14:20:10;29.00;24.90
71208;DHT22;58938;49.868;8.646;2022-08-30T14:22:35;29.10;24.70
71208;DHT22;58938;49.868;8.646;2022-08-30T14:25:01;29.10;24.70
71208;DHT22;58938;49.868;8.646;2022-08-30T14:27:27;29.20;24.70
71208;DHT22;58938;49.868;8.646;2022-08-30T14:29:53;29.20;24.50
71208;DHT22;58938;49.868;8.646;2022-08-30T14:32:19;29.20;24.40
71208;DHT22;58938;49.868;8.646;2022-08-30T14:34:45;29.20;24.50
71208;DHT22;58938;49.868;8.646;2022-08-30T14:37:11;29.20;24.50
71208;DHT22;58938;49.868;8.646;2022-08-30T14:39:37;29.20;24.60
71208;DHT22;58938;49.868;8.646;2022-08-30T14:42:03;29.20;24.50
71208;DHT22;58938;49.868;8.646;2022-08-30T14:44:28;29.20;24.40
71208;DHT22;58938;49.868;8.646;2022-08-30T14:46:54;29.20;24.40
71208;DHT22;58938;49.868;8.646;2022-08-30T14:49:20;29.20;24.40
71208;DHT22;58938;49.868;8.646;2022-08-30T14:51:45;29.20;24.30
71208;DHT22;58938;49.868;8.646;2022-08-30T14:54:13;29.10;24.30
71208;DHT22;58938;49.868;8.646;2022-08-30T14:56:40;29.10;24.10
71208;DHT22;58938;49.868;8.646;2022-08-30T14:59:06;29.20;24.00
71208;DHT22;58938;49.868;8.646;2022-08-30T15:01:33;29.20;23.90
71208;DHT22;58938;49.868;8.646;2022-08-30T15:03:59;29.20;23.80
71208;DHT22;58938;49.868;8.646;2022-08-30T15:06:24;29.20;23.90
71208;DHT22;58938;49.868;8.646;2022-08-30T15:08:50;29.20;23.80
71208;DHT22;58938;49.868;8.646;2022-08-30T15:11:18;29.20;23.90
71208;DHT22;58938;49.868;8.646;2022-08-30T15:13:44;29.30;23.70
71208;DHT22;58938;49.868;8.646;2022-08-30T15:16:12;29.30;23.60
71208;DHT22;58938;49.868;8.646;2022-08-30T15:18:37;29.30;23.60
71208;DHT22;58938;49.868;8.646;2022-08-30T15:21:03;29.40;23.60
71208;DHT22;58938;49.868;8.646;2022-08-30T15:23:29;29.40;23.50
71208;DHT22;58938;49.868;8.646;2022-08-30T15:25:54;29.50;23.50
71208;DHT22;58938;49.868;8.646;2022-08-30T15:28:20;29.50;23.30
71208;DHT22;58938;49.868;8.646;2022-08-30T15:30:45;29.60;23.30
71208;DHT22;58938;49.868;8.646;2022-08-30T15:33:11;29.60;23.30
71208;DHT22;58938;49.868;8.646;2022-08-30T15:35:36;29.60;23.30
71208;DHT22;58938;49.868;8.646;2022-08-30T15:38:02;29.70;23.40
71208;DHT22;58938;49.868;8.646;2022-08-30T15:40:28;29.70;23.20
71208;DHT22;58938;49.868;8.646;2022-08-30T15:42:54;29.70;23.00
71208;DHT22;58938;49.868;8.646;2022-08-30T15:45:20;29.80;23.00
71208;DHT22;58938;49.868;8.646;2022-08-30T15:47:46;29.80;22.90
71208;DHT22;58938;49.868;8.646;2022-08-30T15:50:11;29.90;22.80
71208;DHT22;58938;49.868;8.646;2022-08-30T15:52:37;29.90;22.60
71208;DHT22;58938;49.868;8.646;2022-08-30T15:55:03;29.90;22.50
71208;DHT22;58938;49.868;8.646;2022-08-30T15:57:29;29.90;22.50
71208;DHT22;58938;49.868;8.646;2022-08-30T15:59:54;29.90;22.40
71208;DHT22;58938;49.868;8.646;2022-08-30T16:02:20;29.90;22.50
71208;DHT22;58938;49.868;8.646;2022-08-30T16:04:46;29.90;22.50
71208;DHT22;58938;49.868;8.646;2022-08-30T16:07:12;30.00;22.60
71208;DHT22;58938;49.868;8.646;2022-08-30T16:09:38;30.00;22.60
71208;DHT22;58938;49.868;8.646;2022-08-30T16:12:05;30.00;22.60
71208;DHT22;58938;49.868;8.646;2022-08-30T16:14:31;30.00;22.60
71208;DHT22;58938;49.868;8.646;2022-08-30T16:16:57;30.00;22.50
71208;DHT22;58938;49.868;8.646;2022-08-30T16:19:23;30.00;22.40
71208;DHT22;58938;49.868;8.646;2022-08-30T16:21:49;30.00;22.40
71208;DHT22;58938;49.868;8.646;2022-08-30T16:24:14;30.00;22.50
71208;DHT22;58938;49.868;8.646;2022-08-30T16:26:43;30.00;22.50
71208;DHT22;58938;49.868;8.646;2022-08-30T16:29:09;30.00;22.50
71208;DHT22;58938;49.868;8.646;2022-08-30T16:31:35;30.00;22.50
71208;DHT22;58938;49.868;8.646;2022-08-30T16:34:02;30.00;22.40
71208;DHT22;58938;49.868;8.646;2022-08-30T16:36:28;30.00;22.30
71208;DHT22;58938;49.868;8.646;2022-08-30T16:38:54;29.90;22.20
71208;DHT22;58938;49.868;8.646;2022-08-30T16:41:20;29.90;22.10
71208;DHT22;58938;49.868;8.646;2022-08-30T16:43:47;29.90;22.20
71208;DHT22;58938;49.868;8.646;2022-08-30T16:46:15;29.90;22.20
71208;DHT22;58938;49.868;8.646;2022-08-30T16:48:42;29.90;22.20
71208;DHT22;58938;49.868;8.646;2022-08-30T16:51:10;29.90;22.10
71208;DHT22;58938;49.868;8.646;2022-08-30T16:53:37;29.90;22.20
71208;DHT22;58938;49.868;8.646;2022-08-30T16:56:12;29.90;22.10
71208;DHT22;58938;49.868;8.646;2022-08-30T16:58:39;29.90;22.10
71208;DHT22;58938;49.868;8.646;2022-08-30T17:01:05;29.90;22.20
71208;DHT22;58938;49.868;8.646;2022-08-30T17:03:31;29.90;22.20
71208;DHT22;58938;49.868;8.646;2022-08-30T17:05:58;29.90;22.20